sensor_id;sensor_type;location;lat;lon;timestamp;temperature;humidity
421;DHT22;63667;49.046;8.468;2022-12-18T00:00:02;-7.40;99.60
421;DHT22;63667;49.046;8.468;2022-12-18T00:02:31;-7.40;99.60
421;DHT22;63667;49.046;8.468;2022-12-18T00:05:01;-7.20;99.60
421;DHT22;63667;49.046;8.468;2022-12-18T00:07:28;-7.30;99.60
421;DHT22;63667;49.046;8.468;2022-12-18T00:09:56;-7.20;99.60
421;DHT22;63667;49.046;8.468;2022-12-18T00:12:24;-7.40;99.60
421;DHT22;63667;49.046;8.468;2022-12-18T00:14:55;-7.30;99.60
421;DHT22;63667;49.046;8.468;2022-12-18T00:17:23;-7.30;99.60
421;DHT22;63667;49.046;8.468;2022-12-18T00:19:50;-7.30;99.60
421;DHT22;63667;49.046;8.468;2022-12-18T00:22:18;-7.30;99.60
421;DHT22;63667;49.046;8.468;2022-12-18T00:24:45;-7.20;99.60
421;DHT22;63667;49.046;8.468;2022-12-18T00:27:14;-7.20;99.60
421;DHT22;63667;49.046;8.468;2022-12-18T00:29:41;-7.20;99.60
421;DHT22;63667;49.046;8.468;2022-12-18T00:32:09;-7.20;99.60
421;DHT22;63667;49.046;8.468;2022-12-18T00:34:37;-7.20;99.60
421;DHT22;63667;49.046;8.468;2022-12-18T00:37:03;-7.30;99.60
421;DHT22;63667;49.046;8.468;2022-12-18T00:39:30;-7.30;99.60
421;DHT22;63667;49.046;8.468;2022-12-18T00:41:57;-7.30;99.60
421;DHT22;63667;49.046;8.468;2022-12-18T00:44:43;-7.40;99.60
421;DHT22;63667;49.046;8.468;2022-12-18T00:47:09;-7.40;99.60
421;DHT22;63667;49.046;8.468;2022-12-18T00:49:35;-7.50;99.60
421;DHT22;63667;49.046;8.468;2022-12-18T00:52:02;-7.40;99.60
421;DHT22;63667;49.046;8.468;2022-12-18T00:54:29;-7.30;99.60
421;DHT22;63667;49.046;8.468;2022-12-18T00:56:56;-7.30;99.60
421;DHT22;63667;49.046;8.468;2022-12-18T00:59:24;-7.30;99.60
421;DHT22;63667;49.046;8.468;2022-12-18T01:01:51;-7.30;99.60
421;DHT22;63667;49.046;8.468;2022-12-18T01:04:17;-7.30;99.60
421;DHT22;63667;49.046;8.468;2022-12-18T01:06:43;-7.30;99.60
421;DHT22;63667;49.046;8.468;2022-12-18T01:09:09;-7.30;99.60
421;DHT22;63667;49.046;8.468;2022-12-18T01:11:36;-7.30;99.60
421;DHT22;63667;49.046;8.468;2022-12-18T01:14:02;-7.20;99.60
421;DHT22;63667;49.046;8.468;2022-12-18T01:16:28;-7.20;99.60
421;DHT22;63667;49.046;8.468;2022-12-18T01:18:56;-7.10;99.60
421;DHT22;63667;49.046;8.468;2022-12-18T01:21:23;-7.10;99.60
421;DHT22;63667;49.046;8.468;2022-12-18T01:23:53;-7.00;99.60
421;DHT22;63667;49.046;8.468;2022-12-18T01:26:21;-7.00;99.60
421;DHT22;63667;49.046;8.468;2022-12-18T01:28:48;-7.00;99.60
421;DHT22;63667;49.046;8.468;2022-12-18T01:31:16;-7.00;99.60
421;DHT22;63667;49.046;8.468;2022-12-18T01:33:51;-7.10;99.60
421;DHT22;63667;49.046;8.468;2022-12-18T01:36:29;-7.20;99.60
421;DHT22;63667;49.046;8.468;2022-12-18T01:39:02;-7.00;99.60
421;DHT22;63667;49.046;8.468;2022-12-18T01:41:31;-7.10;99.60
421;DHT22;63667;49.046;8.468;2022-12-18T01:50:19;-6.90;99.60
421;DHT22;63667;49.046;8.468;2022-12-18T01:53:06;-6.90;99.60
421;DHT22;63667;49.046;8.468;2022-12-18T01:55:56;-6.90;99.60
421;DHT22;63667;49.046;8.468;2022-12-18T02:00:56;-7.00;99.60
421;DHT22;63667;49.046;8.468;2022-12-18T02:03:24;-6.90;99.60
421;DHT22;63667;49.046;8.468;2022-12-18T02:06:09;-6.90;99.60
421;DHT22;63667;49.046;8.468;2022-12-18T02:08:42;-6.90;99.60
421;DHT22;63667;49.046;8.468;2022-12-18T02:27:53;-6.90;99.60
421;DHT22;63667;49.046;8.468;2022-12-18T02:30:27;-6.90;99.60
421;DHT22;63667;49.046;8.468;2022-12-18T02:32:58;-6.80;99.60
421;DHT22;63667;49.046;8.468;2022-12-18T02:35:29;-6.90;99.60
421;DHT22;63667;49.046;8.468;2022-12-18T02:37:58;-6.90;99.60
421;DHT22;63667;49.046;8.468;2022-12-18T02:40:27;-7.30;99.60
421;DHT22;63667;49.046;8.468;2022-12-18T02:42:55;-7.40;99.60
421;DHT22;63667;49.046;8.468;2022-12-18T02:45:22;-7.50;99.60
421;DHT22;63667;49.046;8.468;2022-12-18T02:47:50;-7.60;99.60
421;DHT22;63667;49.046;8.468;2022-12-18T02:50:42;-7.70;99.60
421;DHT22;63667;49.046;8.468;2022-12-18T02:53:39;-7.70;99.60
421;DHT22;63667;49.046;8.468;2022-12-18T02:56:17;-7.70;99.60
421;DHT22;63667;49.046;8.468;2022-12-18T02:58:58;-7.80;99.60
421;DHT22;63667;49.046;8.468;2022-12-18T03:04:27;-7.70;99.60
421;DHT22;63667;49.046;8.468;2022-12-18T03:06:57;-7.80;99.60
421;DHT22;63667;49.046;8.468;2022-12-18T03:09:48;-7.90;99.60
421;DHT22;63667;49.046;8.468;2022-12-18T03:12:21;-8.10;99.60
421;DHT22;63667;49.046;8.468;2022-12-18T03:15:09;-8.00;99.60
421;DHT22;63667;49.046;8.468;2022-12-18T03:17:44;-7.90;99.60
421;DHT22;63667;49.046;8.468;2022-12-18T03:20:15;-7.80;99.60
421;DHT22;63667;49.046;8.468;2022-12-18T03:22:45;-8.00;99.60
421;DHT22;63667;49.046;8.468;2022-12-18T03:25:15;-7.90;99.60
421;DHT22;63667;49.046;8.468;2022-12-18T03:27:49;-8.00;99.60
421;DHT22;63667;49.046;8.468;2022-12-18T03:30:17;-8.10;99.60
421;DHT22;63667;49.046;8.468;2022-12-18T03:33:08;-8.10;99.60
421;DHT22;63667;49.046;8.468;2022-12-18T03:35:42;-8.10;99.60
421;DHT22;63667;49.046;8.468;2022-12-18T03:38:10;-8.10;99.60
421;DHT22;63667;49.046;8.468;2022-12-18T03:40:58;-8.20;99.60
421;DHT22;63667;49.046;8.468;2022-12-18T03:43:36;-8.30;99.60
421;DHT22;63667;49.046;8.468;2022-12-18T03:48:55;-8.10;99.60
421;DHT22;63667;49.046;8.468;2022-12-18T03:51:37;-8.10;99.60
421;DHT22;63667;49.046;8.468;2022-12-18T03:54:06;-8.10;99.60
421;DHT22;63667;49.046;8.468;2022-12-18T03:56:39;-8.20;99.60
421;DHT22;63667;49.046;8.468;2022-12-18T03:59:09;-8.30;99.60
421;DHT22;63667;49.046;8.468;2022-12-18T04:01:47;-8.30;99.60
421;DHT22;63667;49.046;8.468;2022-12-18T04:04:19;-8.20;99.60
421;DHT22;63667;49.046;8.468;2022-12-18T04:06:48;-8.30;99.60
421;DHT22;63667;49.046;8.468;2022-12-18T04:09:16;-8.40;99.60
421;DHT22;63667;49.046;8.468;2022-12-18T04:11:43;-8.50;99.60
421;DHT22;63667;49.046;8.468;2022-12-18T04:14:11;-8.60;99.60
421;DHT22;63667;49.046;8.468;2022-12-18T04:16:38;-8.50;99.60
421;DHT22;63667;49.046;8.468;2022-12-18T04:19:06;-8.50;99.60
421;DHT22;63667;49.046;8.468;2022-12-18T04:21:32;-8.50;99.60
421;DHT22;63667;49.046;8.468;2022-12-18T04:23:59;-8.40;99.60
421;DHT22;63667;49.046;8.468;2022-12-18T04:26:27;-8.50;99.60
421;DHT22;63667;49.046;8.468;2022-12-18T04:28:54;-8.40;99.60
421;DHT22;63667;49.046;8.468;2022-12-18T04:31:22;-8.60;99.60
421;DHT22;63667;49.046;8.468;2022-12-18T04:33:49;-8.70;99.60
421;DHT22;63667;49.046;8.468;2022-12-18T04:36:17;-8.70;99.60
421;DHT22;63667;49.046;8.468;2022-12-18T04:38:44;-8.70;99.60
421;DHT22;63667;49.046;8.468;2022-12-18T04:41:12;-8.90;99.60
421;DHT22;63667;49.046;8.468;2022-12-18T04:43:39;-9.00;99.60
421;DHT22;63667;49.046;8.468;2022-12-18T04:46:07;-9.10;99.60
421;DHT22;63667;49.046;8.468;2022-12-18T04:48:36;-9.10;99.60
421;DHT22;63667;49.046;8.468;2022-12-18T04:51:04;-9.10;99.60
421;DHT22;63667;49.046;8.468;2022-12-18T04:53:32;-9.10;99.60
421;DHT22;63667;49.046;8.468;2022-12-18T04:56:07;-9.20;99.60
421;DHT22;63667;49.046;8.468;2022-12-18T04:58:34;-9.00;99.60
421;DHT22;63667;49.046;8.468;2022-12-18T05:01:02;-9.00;99.60
421;DHT22;63667;49.046;8.468;2022-12-18T05:03:29;-9.20;99.60
421;DHT22;63667;49.046;8.468;2022-12-18T05:05:57;-9.40;99.60
421;DHT22;63667;49.046;8.468;2022-12-18T05:08:24;-9.40;99.60
421;DHT22;63667;49.046;8.468;2022-12-18T05:11:05;-9.50;99.60
421;DHT22;63667;49.046;8.468;2022-12-18T05:13:33;-9.40;99.60
421;DHT22;63667;49.046;8.468;2022-12-18T05:16:06;-9.50;99.60
421;DHT22;63667;49.046;8.468;2022-12-18T05:18:32;-9.70;99.60
421;DHT22;63667;49.046;8.468;2022-12-18T05:20:59;-9.60;99.60
421;DHT22;63667;49.046;8.468;2022-12-18T05:23:26;-9.50;99.60
421;DHT22;63667;49.046;8.468;2022-12-18T05:25:58;-9.60;99.60
421;DHT22;63667;49.046;8.468;2022-12-18T05:28:27;-9.60;99.60
421;DHT22;63667;49.046;8.468;2022-12-18T05:30:57;-9.40;99.60
421;DHT22;63667;49.046;8.468;2022-12-18T05:33:25;-9.20;99.60
421;DHT22;63667;49.046;8.468;2022-12-18T05:35:54;-9.20;99.60
421;DHT22;63667;49.046;8.468;2022-12-18T05:38:23;-9.00;99.60
421;DHT22;63667;49.046;8.468;2022-12-18T05:40:50;-9.10;99.60
421;DHT22;63667;49.046;8.468;2022-12-18T05:43:19;-9.10;99.60
421;DHT22;63667;49.046;8.468;2022-12-18T05:45:46;-8.90;99.60
421;DHT22;63667;49.046;8.468;2022-12-18T05:48:13;-8.80;99.60
421;DHT22;63667;49.046;8.468;2022-12-18T05:50:42;-8.70;99.60
421;DHT22;63667;49.046;8.468;2022-12-18T05:53:10;-8.40;99.60
421;DHT22;63667;49.046;8.468;2022-12-18T05:55:39;-8.30;99.60
421;DHT22;63667;49.046;8.468;2022-12-18T05:58:08;-8.20;99.60
421;DHT22;63667;49.046;8.468;2022-12-18T06:00:37;-8.00;99.60
421;DHT22;63667;49.046;8.468;2022-12-18T06:03:08;-8.00;99.60
421;DHT22;63667;49.046;8.468;2022-12-18T06:05:37;-8.00;99.60
421;DHT22;63667;49.046;8.468;2022-12-18T06:08:05;-7.90;99.60
421;DHT22;63667;49.046;8.468;2022-12-18T06:10:32;-7.90;99.60
421;DHT22;63667;49.046;8.468;2022-12-18T06:13:00;-7.90;99.60
421;DHT22;63667;49.046;8.468;2022-12-18T06:15:26;-7.80;99.60
421;DHT22;63667;49.046;8.468;2022-12-18T06:17:53;-7.70;99.60
421;DHT22;63667;49.046;8.468;2022-12-18T06:20:21;-7.70;99.60
421;DHT22;63667;49.046;8.468;2022-12-18T06:22:48;-7.50;99.60
421;DHT22;63667;49.046;8.468;2022-12-18T06:25:15;-7.50;99.60
421;DHT22;63667;49.046;8.468;2022-12-18T06:27:43;-7.50;99.60
421;DHT22;63667;49.046;8.468;2022-12-18T06:30:12;-7.50;99.60
421;DHT22;63667;49.046;8.468;2022-12-18T06:32:44;-7.30;99.60
421;DHT22;63667;49.046;8.468;2022-12-18T06:35:11;-7.30;99.60
421;DHT22;63667;49.046;8.468;2022-12-18T06:37:38;-7.30;99.60
421;DHT22;63667;49.046;8.468;2022-12-18T06:40:06;-7.50;99.60
421;DHT22;63667;49.046;8.468;2022-12-18T06:42:32;-7.40;99.60
421;DHT22;63667;49.046;8.468;2022-12-18T06:44:59;-7.30;99.60
421;DHT22;63667;49.046;8.468;2022-12-18T06:47:25;-7.20;99.60
421;DHT22;63667;49.046;8.468;2022-12-18T06:49:51;-7.20;99.60
421;DHT22;63667;49.046;8.468;2022-12-18T06:52:18;-7.10;99.60
421;DHT22;63667;49.046;8.468;2022-12-18T06:54:47;-7.10;99.60
421;DHT22;63667;49.046;8.468;2022-12-18T06:57:17;-7.00;99.60
421;DHT22;63667;49.046;8.468;2022-12-18T06:59:44;-7.00;99.60
421;DHT22;63667;49.046;8.468;2022-12-18T07:02:12;-7.00;99.60
421;DHT22;63667;49.046;8.468;2022-12-18T07:04:38;-7.00;99.60
421;DHT22;63667;49.046;8.468;2022-12-18T07:07:04;-6.80;99.60
421;DHT22;63667;49.046;8.468;2022-12-18T07:09:30;-7.00;99.60
421;DHT22;63667;49.046;8.468;2022-12-18T07:11:57;-7.00;99.60
421;DHT22;63667;49.046;8.468;2022-12-18T07:14:24;-7.00;99.60
421;DHT22;63667;49.046;8.468;2022-12-18T07:16:50;-6.90;99.60
421;DHT22;63667;49.046;8.468;2022-12-18T07:19:17;-6.90;99.60
421;DHT22;63667;49.046;8.468;2022-12-18T07:21:43;-6.90;99.60
421;DHT22;63667;49.046;8.468;2022-12-18T07:24:09;-6.60;99.60
421;DHT22;63667;49.046;8.468;2022-12-18T07:26:35;-6.70;99.60
421;DHT22;63667;49.046;8.468;2022-12-18T07:29:01;-6.70;99.60
421;DHT22;63667;49.046;8.468;2022-12-18T07:31:27;-6.70;99.60
421;DHT22;63667;49.046;8.468;2022-12-18T07:33:54;-6.60;99.60
421;DHT22;63667;49.046;8.468;2022-12-18T07:36:20;-6.80;99.60
421;DHT22;63667;49.046;8.468;2022-12-18T07:38:48;-6.90;99.60
421;DHT22;63667;49.046;8.468;2022-12-18T07:41:15;-6.90;99.60
421;DHT22;63667;49.046;8.468;2022-12-18T07:43:42;-6.80;99.60
421;DHT22;63667;49.046;8.468;2022-12-18T07:46:09;-6.60;99.60
421;DHT22;63667;49.046;8.468;2022-12-18T07:48:35;-6.60;99.60
421;DHT22;63667;49.046;8.468;2022-12-18T07:51:04;-6.60;99.60
421;DHT22;63667;49.046;8.468;2022-12-18T07:53:32;-6.70;99.60
421;DHT22;63667;49.046;8.468;2022-12-18T07:56:02;-6.50;99.60
421;DHT22;63667;49.046;8.468;2022-12-18T07:58:29;-6.30;99.60
421;DHT22;63667;49.046;8.468;2022-12-18T08:01:06;-6.30;99.60
421;DHT22;63667;49.046;8.468;2022-12-18T08:03:33;-6.50;99.60
421;DHT22;63667;49.046;8.468;2022-12-18T08:06:03;-6.50;99.60
421;DHT22;63667;49.046;8.468;2022-12-18T08:08:30;-6.30;99.60
421;DHT22;63667;49.046;8.468;2022-12-18T08:10:57;-6.40;99.60
421;DHT22;63667;49.046;8.468;2022-12-18T08:13:24;-6.40;99.60
421;DHT22;63667;49.046;8.468;2022-12-18T08:15:58;-6.40;99.60
421;DHT22;63667;49.046;8.468;2022-12-18T08:18:25;-6.50;99.60
421;DHT22;63667;49.046;8.468;2022-12-18T08:20:53;-6.40;99.60
421;DHT22;63667;49.046;8.468;2022-12-18T08:23:21;-6.30;99.60
421;DHT22;63667;49.046;8.468;2022-12-18T08:25:48;-6.40;99.60
421;DHT22;63667;49.046;8.468;2022-12-18T08:28:17;-6.40;99.60
421;DHT22;63667;49.046;8.468;2022-12-18T08:30:45;-6.20;99.60
421;DHT22;63667;49.046;8.468;2022-12-18T08:33:13;-6.30;99.60
421;DHT22;63667;49.046;8.468;2022-12-18T08:35:40;-6.20;99.60
421;DHT22;63667;49.046;8.468;2022-12-18T08:38:08;-6.10;99.60
421;DHT22;63667;49.046;8.468;2022-12-18T08:40:36;-6.30;99.60
421;DHT22;63667;49.046;8.468;2022-12-18T08:43:03;-6.30;99.60
421;DHT22;63667;49.046;8.468;2022-12-18T08:45:49;-6.10;99.60
421;DHT22;63667;49.046;8.468;2022-12-18T08:48:16;-6.10;99.60
421;DHT22;63667;49.046;8.468;2022-12-18T08:50:52;-6.10;99.60
421;DHT22;63667;49.046;8.468;2022-12-18T08:53:29;-6.00;99.60
421;DHT22;63667;49.046;8.468;2022-12-18T08:55:57;-5.80;99.60
421;DHT22;63667;49.046;8.468;2022-12-18T08:58:25;-5.80;99.60
421;DHT22;63667;49.046;8.468;2022-12-18T09:00:53;-5.80;99.60
421;DHT22;63667;49.046;8.468;2022-12-18T09:03:20;-5.80;99.60
421;DHT22;63667;49.046;8.468;2022-12-18T09:05:49;-5.80;99.60
421;DHT22;63667;49.046;8.468;2022-12-18T09:08:17;-5.60;99.60
421;DHT22;63667;49.046;8.468;2022-12-18T09:10:45;-5.70;99.60
421;DHT22;63667;49.046;8.468;2022-12-18T09:13:12;-5.60;99.60
421;DHT22;63667;49.046;8.468;2022-12-18T09:15:46;-5.70;99.60
421;DHT22;63667;49.046;8.468;2022-12-18T09:18:14;-5.80;99.60
421;DHT22;63667;49.046;8.468;2022-12-18T09:20:41;-5.70;99.60
421;DHT22;63667;49.046;8.468;2022-12-18T09:23:08;-5.60;99.60
421;DHT22;63667;49.046;8.468;2022-12-18T09:25:36;-5.60;99.60
421;DHT22;63667;49.046;8.468;2022-12-18T09:28:05;-5.80;99.60
421;DHT22;63667;49.046;8.468;2022-12-18T09:30:33;-5.50;99.60
421;DHT22;63667;49.046;8.468;2022-12-18T09:33:00;-5.20;99.60
421;DHT22;63667;49.046;8.468;2022-12-18T09:35:27;-4.70;99.60
421;DHT22;63667;49.046;8.468;2022-12-18T09:37:54;-4.70;99.60
421;DHT22;63667;49.046;8.468;2022-12-18T09:40:23;-4.50;99.60
421;DHT22;63667;49.046;8.468;2022-12-18T09:43:15;-4.60;99.60
421;DHT22;63667;49.046;8.468;2022-12-18T09:45:52;-4.50;99.60
421;DHT22;63667;49.046;8.468;2022-12-18T09:48:30;-4.80;99.60
421;DHT22;63667;49.046;8.468;2022-12-18T09:51:02;-4.90;99.60
421;DHT22;63667;49.046;8.468;2022-12-18T09:53:33;-4.60;99.60
421;DHT22;63667;49.046;8.468;2022-12-18T09:56:10;-4.50;99.60
421;DHT22;63667;49.046;8.468;2022-12-18T09:58:49;-4.60;99.60
421;DHT22;63667;49.046;8.468;2022-12-18T10:01:21;-4.60;99.60
421;DHT22;63667;49.046;8.468;2022-12-18T10:03:49;-4.50;99.60
421;DHT22;63667;49.046;8.468;2022-12-18T10:19:56;-4.10;99.60
421;DHT22;63667;49.046;8.468;2022-12-18T10:25:14;-3.90;99.60
421;DHT22;63667;49.046;8.468;2022-12-18T10:27:43;-3.90;99.60
421;DHT22;63667;49.046;8.468;2022-12-18T10:30:22;-3.50;99.60
421;DHT22;63667;49.046;8.468;2022-12-18T10:32:49;-3.60;99.60
421;DHT22;63667;49.046;8.468;2022-12-18T10:35:23;-3.60;99.60
421;DHT22;63667;49.046;8.468;2022-12-18T10:40:31;-3.50;99.60
421;DHT22;63667;49.046;8.468;2022-12-18T10:43:12;-3.60;99.60
421;DHT22;63667;49.046;8.468;2022-12-18T10:45:39;-3.10;99.60
421;DHT22;63667;49.046;8.468;2022-12-18T10:48:19;-2.90;99.60
421;DHT22;63667;49.046;8.468;2022-12-18T10:50:48;-3.00;99.60
421;DHT22;63667;49.046;8.468;2022-12-18T10:53:20;-2.80;99.60
421;DHT22;63667;49.046;8.468;2022-12-18T10:55:48;-2.80;99.60
421;DHT22;63667;49.046;8.468;2022-12-18T11:01:12;-2.80;99.60
421;DHT22;63667;49.046;8.468;2022-12-18T11:06:16;-2.60;99.60
421;DHT22;63667;49.046;8.468;2022-12-18T11:09:09;-2.20;99.60
421;DHT22;63667;49.046;8.468;2022-12-18T11:11:48;-2.30;99.60
421;DHT22;63667;49.046;8.468;2022-12-18T11:14:21;-2.10;99.60
421;DHT22;63667;49.046;8.468;2022-12-18T11:16:50;-2.20;99.60
421;DHT22;63667;49.046;8.468;2022-12-18T11:19:34;-1.90;99.60
421;DHT22;63667;49.046;8.468;2022-12-18T11:22:17;-1.50;99.60
421;DHT22;63667;49.046;8.468;2022-12-18T11:24:53;-1.50;99.60
421;DHT22;63667;49.046;8.468;2022-12-18T11:27:21;-1.20;99.60
421;DHT22;63667;49.046;8.468;2022-12-18T11:29:50;-1.00;99.60
421;DHT22;63667;49.046;8.468;2022-12-18T11:32:43;-0.90;99.60
421;DHT22;63667;49.046;8.468;2022-12-18T11:35:17;-0.50;99.60
421;DHT22;63667;49.046;8.468;2022-12-18T11:38:01;0.00;99.60
421;DHT22;63667;49.046;8.468;2022-12-18T11:40:36;-0.60;99.60
421;DHT22;63667;49.046;8.468;2022-12-18T11:43:25;-1.10;99.60
421;DHT22;63667;49.046;8.468;2022-12-18T11:46:00;-1.40;99.60
421;DHT22;63667;49.046;8.468;2022-12-18T11:48:45;-1.20;99.60
421;DHT22;63667;49.046;8.468;2022-12-18T11:51:27;-1.30;99.60
421;DHT22;63667;49.046;8.468;2022-12-18T11:53:56;-1.20;99.60
421;DHT22;63667;49.046;8.468;2022-12-18T11:56:36;-1.20;99.60
421;DHT22;63667;49.046;8.468;2022-12-18T12:02:25;-1.90;99.60
421;DHT22;63667;49.046;8.468;2022-12-18T12:17:00;-1.80;99.60
421;DHT22;63667;49.046;8.468;2022-12-18T12:25:37;-1.60;99.60
421;DHT22;63667;49.046;8.468;2022-12-18T12:31:34;-1.50;99.60
421;DHT22;63667;49.046;8.468;2022-12-18T12:34:36;-1.60;99.60
421;DHT22;63667;49.046;8.468;2022-12-18T12:37:39;-1.40;99.60
421;DHT22;63667;49.046;8.468;2022-12-18T12:40:18;-1.10;99.60
421;DHT22;63667;49.046;8.468;2022-12-18T12:42:56;-0.70;99.60
421;DHT22;63667;49.046;8.468;2022-12-18T12:46:05;-0.80;99.60
421;DHT22;63667;49.046;8.468;2022-12-18T12:49:02;-0.70;99.60
421;DHT22;63667;49.046;8.468;2022-12-18T12:51:43;-0.80;99.60
421;DHT22;63667;49.046;8.468;2022-12-18T12:54:19;-0.50;99.60
421;DHT22;63667;49.046;8.468;2022-12-18T13:00:19;-0.30;99.60
421;DHT22;63667;49.046;8.468;2022-12-18T13:06:07;-0.70;99.60
421;DHT22;63667;49.046;8.468;2022-12-18T13:09:00;-0.80;99.60
421;DHT22;63667;49.046;8.468;2022-12-18T13:11:43;-0.70;99.60
421;DHT22;63667;49.046;8.468;2022-12-18T13:14:42;-0.90;99.60
421;DHT22;63667;49.046;8.468;2022-12-18T13:18:13;-0.70;99.60
421;DHT22;63667;49.046;8.468;2022-12-18T13:20:44;-0.60;99.60
421;DHT22;63667;49.046;8.468;2022-12-18T13:29:08;-1.30;99.60
421;DHT22;63667;49.046;8.468;2022-12-18T13:32:01;-1.10;99.60
421;DHT22;63667;49.046;8.468;2022-12-18T13:34:29;-1.30;99.60
421;DHT22;63667;49.046;8.468;2022-12-18T13:52:21;-1.60;99.60
421;DHT22;63667;49.046;8.468;2022-12-18T13:55:25;-1.30;99.60
421;DHT22;63667;49.046;8.468;2022-12-18T13:58:37;-1.30;99.60
421;DHT22;63667;49.046;8.468;2022-12-18T14:01:24;-1.30;99.60
421;DHT22;63667;49.046;8.468;2022-12-18T14:04:19;-1.50;99.60
421;DHT22;63667;49.046;8.468;2022-12-18T14:06:57;-1.60;99.60
421;DHT22;63667;49.046;8.468;2022-12-18T14:09:31;-1.60;99.60
421;DHT22;63667;49.046;8.468;2022-12-18T14:12:02;-1.60;99.60
421;DHT22;63667;49.046;8.468;2022-12-18T14:14:51;-1.90;99.60
421;DHT22;63667;49.046;8.468;2022-12-18T14:17:19;-1.90;99.60
421;DHT22;63667;49.046;8.468;2022-12-18T14:19:52;-1.80;99.60
421;DHT22;63667;49.046;8.468;2022-12-18T14:22:30;-1.90;99.60
421;DHT22;63667;49.046;8.468;2022-12-18T14:25:53;-1.90;99.60
421;DHT22;63667;49.046;8.468;2022-12-18T14:30:36;-1.90;99.60
421;DHT22;63667;49.046;8.468;2022-12-18T14:33:12;-1.90;99.60
421;DHT22;63667;49.046;8.468;2022-12-18T14:38:39;-2.00;99.60
421;DHT22;63667;49.046;8.468;2022-12-18T14:41:17;-2.20;99.60
421;DHT22;63667;49.046;8.468;2022-12-18T14:43:47;-2.30;99.60
421;DHT22;63667;49.046;8.468;2022-12-18T14:49:18;-2.30;99.60
421;DHT22;63667;49.046;8.468;2022-12-18T14:52:18;-2.30;99.60
421;DHT22;63667;49.046;8.468;2022-12-18T14:54:50;-2.40;99.60
421;DHT22;63667;49.046;8.468;2022-12-18T14:57:35;-2.50;99.60
421;DHT22;63667;49.046;8.468;2022-12-18T15:00:22;-2.40;99.60
421;DHT22;63667;49.046;8.468;2022-12-18T15:02:58;-2.50;99.60
421;DHT22;63667;49.046;8.468;2022-12-18T15:05:28;-2.50;99.60
421;DHT22;63667;49.046;8.468;2022-12-18T15:07:59;-2.60;99.60
421;DHT22;63667;49.046;8.468;2022-12-18T15:10:31;-2.70;99.60
421;DHT22;63667;49.046;8.468;2022-12-18T15:13:08;-2.70;99.60
421;DHT22;63667;49.046;8.468;2022-12-18T15:15:46;-2.90;99.60
421;DHT22;63667;49.046;8.468;2022-12-18T15:18:15;-2.90;99.60
421;DHT22;63667;49.046;8.468;2022-12-18T15:20:54;-2.90;99.60
421;DHT22;63667;49.046;8.468;2022-12-18T15:26:01;-3.00;99.60
421;DHT22;63667;49.046;8.468;2022-12-18T15:28:35;-3.20;99.60
421;DHT22;63667;49.046;8.468;2022-12-18T15:31:23;-3.30;99.60
421;DHT22;63667;49.046;8.468;2022-12-18T15:36:44;-3.20;99.60
421;DHT22;63667;49.046;8.468;2022-12-18T15:39:21;-3.00;99.60
421;DHT22;63667;49.046;8.468;2022-12-18T15:42:01;-3.00;99.60
421;DHT22;63667;49.046;8.468;2022-12-18T15:44:46;-3.00;99.60
421;DHT22;63667;49.046;8.468;2022-12-18T15:47:15;-3.00;99.60
421;DHT22;63667;49.046;8.468;2022-12-18T15:49:42;-3.00;99.60
421;DHT22;63667;49.046;8.468;2022-12-18T15:52:24;-2.80;99.60
421;DHT22;63667;49.046;8.468;2022-12-18T15:54:52;-3.00;99.60
421;DHT22;63667;49.046;8.468;2022-12-18T15:57:49;-2.90;99.60
421;DHT22;63667;49.046;8.468;2022-12-18T16:00:23;-2.90;99.60
421;DHT22;63667;49.046;8.468;2022-12-18T16:02:50;-3.10;99.60
421;DHT22;63667;49.046;8.468;2022-12-18T16:05:24;-3.00;99.60
421;DHT22;63667;49.046;8.468;2022-12-18T16:07:53;-3.00;99.60
421;DHT22;63667;49.046;8.468;2022-12-18T16:10:25;-3.00;99.60
421;DHT22;63667;49.046;8.468;2022-12-18T16:12:52;-3.00;99.60
421;DHT22;63667;49.046;8.468;2022-12-18T16:15:25;-3.20;99.60
421;DHT22;63667;49.046;8.468;2022-12-18T16:18:12;-3.30;99.60
421;DHT22;63667;49.046;8.468;2022-12-18T16:20:47;-3.50;99.60
421;DHT22;63667;49.046;8.468;2022-12-18T16:23:15;-3.50;99.60
421;DHT22;63667;49.046;8.468;2022-12-18T16:25:43;-3.40;99.60
421;DHT22;63667;49.046;8.468;2022-12-18T16:28:10;-3.40;99.60
421;DHT22;63667;49.046;8.468;2022-12-18T16:30:38;-3.30;99.60
421;DHT22;63667;49.046;8.468;2022-12-18T16:33:08;-3.40;99.60
421;DHT22;63667;49.046;8.468;2022-12-18T16:35:35;-3.40;99.60
421;DHT22;63667;49.046;8.468;2022-12-18T16:38:03;-3.50;99.60
421;DHT22;63667;49.046;8.468;2022-12-18T16:40:32;-3.50;99.60
421;DHT22;63667;49.046;8.468;2022-12-18T16:42:59;-3.50;99.60
421;DHT22;63667;49.046;8.468;2022-12-18T16:45:27;-3.30;99.60
421;DHT22;63667;49.046;8.468;2022-12-18T16:48:02;-3.40;99.60
421;DHT22;63667;49.046;8.468;2022-12-18T16:50:47;-3.30;99.60
421;DHT22;63667;49.046;8.468;2022-12-18T16:53:14;-3.40;99.60
421;DHT22;63667;49.046;8.468;2022-12-18T16:55:41;-3.30;99.60
421;DHT22;63667;49.046;8.468;2022-12-18T16:58:09;-3.40;99.60
421;DHT22;63667;49.046;8.468;2022-12-18T17:00:42;-3.30;99.60
421;DHT22;63667;49.046;8.468;2022-12-18T17:03:10;-3.30;99.60
421;DHT22;63667;49.046;8.468;2022-12-18T17:05:37;-3.40;99.60
421;DHT22;63667;49.046;8.468;2022-12-18T17:08:05;-3.50;99.60
421;DHT22;63667;49.046;8.468;2022-12-18T17:10:35;-3.50;99.60
421;DHT22;63667;49.046;8.468;2022-12-18T17:13:02;-3.40;99.60
421;DHT22;63667;49.046;8.468;2022-12-18T17:15:30;-3.40;99.60
421;DHT22;63667;49.046;8.468;2022-12-18T17:18:00;-3.40;99.60
421;DHT22;63667;49.046;8.468;2022-12-18T17:20:30;-3.40;99.60
421;DHT22;63667;49.046;8.468;2022-12-18T17:22:57;-3.40;99.60
421;DHT22;63667;49.046;8.468;2022-12-18T17:25:25;-3.40;99.60
421;DHT22;63667;49.046;8.468;2022-12-18T17:27:56;-3.40;99.60
421;DHT22;63667;49.046;8.468;2022-12-18T17:30:24;-3.40;99.60
421;DHT22;63667;49.046;8.468;2022-12-18T17:32:51;-3.60;99.60
421;DHT22;63667;49.046;8.468;2022-12-18T17:35:24;-3.40;99.60
421;DHT22;63667;49.046;8.468;2022-12-18T17:37:51;-3.40;99.60
421;DHT22;63667;49.046;8.468;2022-12-18T17:40:19;-3.40;99.60
421;DHT22;63667;49.046;8.468;2022-12-18T17:42:47;-3.40;99.60
421;DHT22;63667;49.046;8.468;2022-12-18T17:45:14;-3.40;99.60
421;DHT22;63667;49.046;8.468;2022-12-18T17:47:42;-3.60;99.60
421;DHT22;63667;49.046;8.468;2022-12-18T17:50:10;-3.60;99.60
421;DHT22;63667;49.046;8.468;2022-12-18T17:52:38;-3.60;99.60
421;DHT22;63667;49.046;8.468;2022-12-18T17:55:08;-3.70;99.60
421;DHT22;63667;49.046;8.468;2022-12-18T17:57:42;-3.70;99.60
421;DHT22;63667;49.046;8.468;2022-12-18T18:00:22;-3.60;99.60
421;DHT22;63667;49.046;8.468;2022-12-18T18:02:50;-3.40;99.60
421;DHT22;63667;49.046;8.468;2022-12-18T18:05:18;-3.30;99.60
421;DHT22;63667;49.046;8.468;2022-12-18T18:07:45;-3.30;99.60
421;DHT22;63667;49.046;8.468;2022-12-18T18:10:12;-3.20;99.60
421;DHT22;63667;49.046;8.468;2022-12-18T18:12:52;-3.20;99.60
421;DHT22;63667;49.046;8.468;2022-12-18T18:15:37;-3.20;99.60
421;DHT22;63667;49.046;8.468;2022-12-18T18:18:08;-3.20;99.60
421;DHT22;63667;49.046;8.468;2022-12-18T18:21:06;-3.30;99.60
421;DHT22;63667;49.046;8.468;2022-12-18T18:23:34;-3.50;99.60
421;DHT22;63667;49.046;8.468;2022-12-18T18:26:11;-3.40;99.60
421;DHT22;63667;49.046;8.468;2022-12-18T18:28:38;-3.40;99.60
421;DHT22;63667;49.046;8.468;2022-12-18T18:31:06;-3.40;99.60
421;DHT22;63667;49.046;8.468;2022-12-18T18:33:34;-3.30;99.60
421;DHT22;63667;49.046;8.468;2022-12-18T18:36:14;-3.20;99.60